createdAt,value
2023-02-14T00:00:55.667Z,35.88
2023-02-14T00:03:22.359Z,36.47
2023-02-14T00:05:49.470Z,38.97
2023-02-14T00:08:16.351Z,43.25
2023-02-14T00:10:42.912Z,43.55
2023-02-14T00:13:09.598Z,43.10
2023-02-14T00:15:36.178Z,47.45
2023-02-14T00:18:03.484Z,43.20
2023-02-14T00:20:30.193Z,41.58
2023-02-14T00:22:56.926Z,48.05
2023-02-14T00:25:23.722Z,38.78
2023-02-14T00:27:50.440Z,43.40
2023-02-14T00:30:17.280Z,48.85
2023-02-14T00:32:43.923Z,45.97
2023-02-14T00:35:11.004Z,43.42
2023-02-14T00:37:37.737Z,45.63
2023-02-14T00:40:05.360Z,49.70
2023-02-14T00:42:31.951Z,42.90
2023-02-14T00:44:58.545Z,43.15
2023-02-14T00:47:25.306Z,43.70
2023-02-14T00:49:52.124Z,56.67
2023-02-14T00:52:18.838Z,44.55
2023-02-14T00:54:45.828Z,48.05
2023-02-14T00:57:12.455Z,49.28
2023-02-14T00:59:39.111Z,48.90
2023-02-14T01:02:05.800Z,52.78
2023-02-14T01:04:32.492Z,49.33
2023-02-14T01:06:59.138Z,45.78
2023-02-14T01:09:25.740Z,51.17
2023-02-14T01:11:52.367Z,51.55
2023-02-14T01:14:18.985Z,44.58
2023-02-14T01:16:45.695Z,46.22
2023-02-14T01:19:12.306Z,46.55
2023-02-14T01:21:38.956Z,53.95
2023-02-14T01:24:07.640Z,48.78
2023-02-14T01:26:34.943Z,47.70
2023-02-14T01:29:01.938Z,57.90
2023-02-14T01:31:31.052Z,60.58
2023-02-14T01:33:58.892Z,52.47
2023-02-14T01:36:26.922Z,56.20
2023-02-14T01:38:56.188Z,52.85
2023-02-14T01:41:24.172Z,55.30
2023-02-14T01:43:59.839Z,54.38
2023-02-14T01:46:29.455Z,54.83
2023-02-14T01:49:01.798Z,58.03
2023-02-14T01:51:29.674Z,55.92
2023-02-14T01:53:57.580Z,53.35
2023-02-14T01:56:29.195Z,48.78
2023-02-14T01:59:00.152Z,50.25
2023-02-14T02:01:28.092Z,53.33
2023-02-14T02:03:57.361Z,56.13
2023-02-14T02:06:33.550Z,53.17
2023-02-14T02:09:22.972Z,49.30
2023-02-14T02:11:49.896Z,49.42
2023-02-14T02:14:19.068Z,53.42
2023-02-14T02:17:03.588Z,49.05
2023-02-14T02:19:54.851Z,50.05
2023-02-14T02:22:37.557Z,56.10
2023-02-14T02:25:41.567Z,57.55
2023-02-14T02:29:02.296Z,49.50
2023-02-14T02:31:49.134Z,50.15
2023-02-14T02:34:37.548Z,48.80
2023-02-14T02:37:39.585Z,48.83
2023-02-14T02:40:24.078Z,48.58
2023-02-14T02:43:21.927Z,50.55
2023-02-14T02:46:23.659Z,52.20
2023-02-14T02:48:56.344Z,51.63
2023-02-14T02:51:56.393Z,53.75
2023-02-14T02:54:49.050Z,47.97
2023-02-14T02:57:22.543Z,45.83
2023-02-14T02:59:51.946Z,56.33
2023-02-14T03:02:23.487Z,49.60
2023-02-14T03:04:55.196Z,51.92
2023-02-14T03:07:40.326Z,56.00
2023-02-14T03:10:13.813Z,58.03
2023-02-14T03:13:09.045Z,54.97
2023-02-14T03:16:03.564Z,52.45
2023-02-14T03:19:13.577Z,50.53
2023-02-14T03:22:08.315Z,53.38
2023-02-14T03:24:57.344Z,50.83
2023-02-14T03:27:45.394Z,52.53
2023-02-14T03:30:28.068Z,48.35
2023-02-14T03:33:00.178Z,43.40
2023-02-14T03:35:36.417Z,44.50
2023-02-14T03:38:22.003Z,42.55
2023-02-14T03:40:58.152Z,47.63
2023-02-14T03:43:34.732Z,41.72
2023-02-14T03:46:07.024Z,47.30
2023-02-14T03:48:35.704Z,43.92
2023-02-14T03:51:04.491Z,49.13
2023-02-14T03:53:35.117Z,51.17
2023-02-14T03:56:29.235Z,50.47
2023-02-14T03:59:00.967Z,47.13
2023-02-14T04:01:36.001Z,52.08
2023-02-14T04:04:05.577Z,53.17
2023-02-14T04:06:32.229Z,58.72
2023-02-14T04:08:59.079Z,55.85
2023-02-14T04:11:25.816Z,60.85
2023-02-14T04:13:52.390Z,56.97
2023-02-14T04:16:19.278Z,52.33
2023-02-14T04:19:04.400Z,61.70
2023-02-14T04:21:31.052Z,52.70
2023-02-14T04:23:57.749Z,56.75
2023-02-14T04:26:24.331Z,54.88
2023-02-14T04:28:51.057Z,55.03
2023-02-14T04:31:17.905Z,53.47
2023-02-14T04:33:46.052Z,47.65
2023-02-14T04:36:12.675Z,50.80
2023-02-14T04:38:39.426Z,45.80
2023-02-14T04:41:06.273Z,54.15
2023-02-14T04:43:32.882Z,43.75
2023-02-14T04:45:59.559Z,43.15
2023-02-14T04:48:26.162Z,43.35
2023-02-14T04:50:56.639Z,48.25
2023-02-14T04:53:23.277Z,51.50
2023-02-14T04:55:50.492Z,58.00
2023-02-14T04:58:17.670Z,55.53
2023-02-14T05:00:44.638Z,49.53
2023-02-14T05:03:11.343Z,53.75
2023-02-14T05:05:37.952Z,53.42
2023-02-14T05:08:04.605Z,59.83
2023-02-14T05:10:31.234Z,77.35
2023-02-14T05:12:57.883Z,96.50
2023-02-14T05:15:24.532Z,85.10
2023-02-14T05:17:51.105Z,81.30
2023-02-14T05:20:17.844Z,124.68
2023-02-14T05:22:44.443Z,304.00
2023-02-14T05:25:11.179Z,103.43
2023-02-14T05:27:37.820Z,88.22
2023-02-14T05:30:04.806Z,98.20
2023-02-14T05:32:31.514Z,87.22
2023-02-14T05:35:00.140Z,88.88
2023-02-14T05:37:27.601Z,88.55
2023-02-14T05:39:54.241Z,88.32
2023-02-14T05:42:20.885Z,94.50
2023-02-14T05:44:48.725Z,126.53
2023-02-14T05:47:15.385Z,92.95
2023-02-14T05:49:42.035Z,84.28
2023-02-14T05:52:08.626Z,89.07
2023-02-14T05:54:35.447Z,99.95
2023-02-14T05:57:02.065Z,89.40
2023-02-14T05:59:28.735Z,80.82
2023-02-14T06:01:55.378Z,86.38
2023-02-14T06:04:22.072Z,84.45
2023-02-14T06:06:48.831Z,80.47
2023-02-14T06:09:15.490Z,79.40
2023-02-14T06:11:42.127Z,88.50
2023-02-14T06:14:08.777Z,82.03
2023-02-14T06:16:35.563Z,85.03
2023-02-14T06:19:02.208Z,86.18
2023-02-14T06:21:28.876Z,86.43
2023-02-14T06:23:55.598Z,92.70
2023-02-14T06:26:22.262Z,84.57
2023-02-14T06:28:53.530Z,98.90
2023-02-14T06:31:20.325Z,84.60
2023-02-14T06:33:47.043Z,96.68
2023-02-14T06:36:13.726Z,138.55
2023-02-14T06:38:41.216Z,199.05
2023-02-14T06:41:09.675Z,96.13
2023-02-14T06:43:36.274Z,224.73
2023-02-14T06:46:03.838Z,196.57
2023-02-14T06:48:30.588Z,180.18
2023-02-14T06:50:57.524Z,154.45
2023-02-14T06:53:24.513Z,311.52
2023-02-14T06:55:51.128Z,270.75
2023-02-14T06:58:17.758Z,257.27
2023-02-14T07:00:44.532Z,109.15
2023-02-14T07:03:11.270Z,273.30
2023-02-14T07:05:38.012Z,171.88
2023-02-14T07:08:07.110Z,295.08
2023-02-14T07:10:34.609Z,202.93
2023-02-14T07:13:01.438Z,318.25
2023-02-14T07:15:28.277Z,365.27
2023-02-14T07:17:55.035Z,245.82
2023-02-14T07:20:21.882Z,257.00
2023-02-14T07:22:48.486Z,194.48
2023-02-14T07:25:15.198Z,378.48
2023-02-14T07:27:42.254Z,373.48
2023-02-14T07:30:11.074Z,431.05
2023-02-14T07:32:38.766Z,90.63
2023-02-14T07:35:06.087Z,610.40
2023-02-14T07:37:34.220Z,664.20
2023-02-14T07:40:01.499Z,610.20
2023-02-14T07:42:28.242Z,455.58
2023-02-14T07:44:55.007Z,440.52
2023-02-14T07:47:21.797Z,229.38
2023-02-14T07:49:48.438Z,157.35
2023-02-14T07:52:15.049Z,319.25
2023-02-14T07:54:41.832Z,191.80
2023-02-14T07:57:08.672Z,523.50
2023-02-14T07:59:35.302Z,526.13
2023-02-14T08:02:01.980Z,685.97
2023-02-14T08:04:28.744Z,144.65
2023-02-14T08:06:55.381Z,168.40
2023-02-14T08:09:24.962Z,153.80
2023-02-14T08:12:11.883Z,367.67
2023-02-14T08:14:38.589Z,320.63
2023-02-14T08:17:07.222Z,561.65
2023-02-14T08:19:34.119Z,385.35
2023-02-14T08:22:00.690Z,461.80
2023-02-14T08:24:27.592Z,405.23
2023-02-14T08:26:54.362Z,296.77
2023-02-14T08:29:21.385Z,325.63
2023-02-14T08:31:48.777Z,408.90
2023-02-14T08:34:16.614Z,436.50
2023-02-14T08:36:43.476Z,308.48
2023-02-14T08:39:10.703Z,173.30
2023-02-14T08:41:37.603Z,255.32
2023-02-14T08:44:04.559Z,89.28
2023-02-14T08:46:31.308Z,180.43
2023-02-14T08:48:58.010Z,252.45
2023-02-14T08:51:25.848Z,369.50
2023-02-14T08:53:53.149Z,108.32
2023-02-14T08:56:21.355Z,266.42
2023-02-14T08:58:48.052Z,421.88
2023-02-14T09:01:17.328Z,258.88
2023-02-14T09:03:44.683Z,151.85
2023-02-14T09:06:17.394Z,281.55
2023-02-14T09:08:45.092Z,261.10
2023-02-14T09:11:18.753Z,275.60
2023-02-14T09:13:46.435Z,205.77
2023-02-14T09:16:14.517Z,330.65
2023-02-14T09:18:41.183Z,189.80
2023-02-14T09:21:10.011Z,143.05
2023-02-14T09:23:37.104Z,130.68
2023-02-14T09:26:06.171Z,259.30
2023-02-14T09:28:32.866Z,209.73
2023-02-14T09:31:07.624Z,346.42
2023-02-14T09:33:34.263Z,131.57
2023-02-14T09:36:12.831Z,209.57
2023-02-14T09:38:39.881Z,152.35
2023-02-14T09:41:16.003Z,199.80
2023-02-14T09:43:55.671Z,194.90
2023-02-14T09:48:51.469Z,74.90
2023-02-14T09:51:20.525Z,73.97
2023-02-14T09:53:52.353Z,66.93
2023-02-14T09:56:50.354Z,87.97
2023-02-14T09:59:29.205Z,61.33
2023-02-14T10:02:05.191Z,71.13
2023-02-14T10:04:40.564Z,80.20
2023-02-14T10:07:33.755Z,72.93
2023-02-14T10:10:16.328Z,71.03
2023-02-14T10:12:52.829Z,211.85
2023-02-14T10:15:24.614Z,173.50
2023-02-14T10:18:03.204Z,65.85
2023-02-14T10:20:36.085Z,112.82
2023-02-14T10:23:27.415Z,60.83
2023-02-14T10:26:00.603Z,60.88
2023-02-14T10:28:37.175Z,93.35
2023-02-14T10:31:24.512Z,73.60
2023-02-14T10:34:22.291Z,66.35
2023-02-14T10:37:04.681Z,61.45
2023-02-14T10:39:46.682Z,67.20
2023-02-14T10:42:38.091Z,79.38
2023-02-14T10:45:34.355Z,55.63
2023-02-14T10:48:14.041Z,65.13
2023-02-14T10:50:59.172Z,116.35
2023-02-14T10:53:48.398Z,64.72
2023-02-14T10:56:29.134Z,54.63
2023-02-14T10:58:57.657Z,97.82
2023-02-14T11:01:24.882Z,72.10
2023-02-14T11:04:06.568Z,62.90
2023-02-14T11:06:33.933Z,61.72
2023-02-14T11:09:00.709Z,81.30
2023-02-14T11:11:37.483Z,83.65
2023-02-14T11:16:52.011Z,73.25
2023-02-14T11:19:20.630Z,81.28
2023-02-14T11:21:50.680Z,128.73
2023-02-14T11:24:28.481Z,80.85
2023-02-14T11:27:22.942Z,128.90
2023-02-14T11:29:52.968Z,88.63
2023-02-14T11:32:28.592Z,90.30
2023-02-14T11:35:05.710Z,84.70
2023-02-14T11:37:39.705Z,88.05
2023-02-14T11:40:07.104Z,89.90
2023-02-14T11:42:45.506Z,84.55
2023-02-14T11:45:27.431Z,110.03
2023-02-14T11:48:12.956Z,107.30
2023-02-14T11:50:42.031Z,83.78
2023-02-14T11:53:12.951Z,73.97
2023-02-14T11:55:41.255Z,71.57
2023-02-14T11:58:09.453Z,72.20
2023-02-14T12:00:37.524Z,82.47
2023-02-14T12:03:06.311Z,78.75
2023-02-14T12:05:45.813Z,71.27
2023-02-14T12:08:13.186Z,83.38
2023-02-14T12:10:42.090Z,77.63
2023-02-14T12:13:08.642Z,76.85
2023-02-14T12:15:44.385Z,84.57
2023-02-14T12:18:13.859Z,80.25
2023-02-14T12:21:09.416Z,92.50
2023-02-14T12:23:51.621Z,80.07
2023-02-14T12:26:49.331Z,81.63
2023-02-14T12:29:44.472Z,93.63
2023-02-14T12:32:25.345Z,87.32
2023-02-14T12:35:22.208Z,89.57
2023-02-14T12:38:05.002Z,87.95
2023-02-14T12:40:40.644Z,82.20
2023-02-14T12:43:45.088Z,87.22
2023-02-14T12:46:23.544Z,90.60
2023-02-14T12:49:08.262Z,84.80
2023-02-14T12:51:53.417Z,93.53
2023-02-14T12:54:53.859Z,91.20
2023-02-14T12:57:47.073Z,94.45
2023-02-14T13:00:37.025Z,93.72
2023-02-14T13:03:21.512Z,88.95
2023-02-14T13:06:09.664Z,86.90
2023-02-14T13:09:12.843Z,85.80
2023-02-14T13:12:02.389Z,86.28
2023-02-14T13:14:53.664Z,85.10
2023-02-14T13:17:49.127Z,82.45
2023-02-14T13:20:26.193Z,83.00
2023-02-14T13:22:55.749Z,89.15
2023-02-14T13:25:33.616Z,82.20
2023-02-14T13:28:07.726Z,83.60
2023-02-14T13:30:42.134Z,78.00
2023-02-14T13:33:24.036Z,83.97
2023-02-14T13:35:52.722Z,86.00
2023-02-14T13:38:20.388Z,95.00
2023-02-14T13:40:48.095Z,81.50
2023-02-14T13:43:46.907Z,88.07
2023-02-14T13:46:15.813Z,83.93
2023-02-14T13:48:43.200Z,82.43
2023-02-14T13:51:10.754Z,81.10
2023-02-14T13:53:41.570Z,82.13
2023-02-14T13:56:15.384Z,87.03
2023-02-14T13:58:59.807Z,89.97
2023-02-14T14:01:35.925Z,89.15
2023-02-14T14:04:07.475Z,86.57
2023-02-14T14:07:16.192Z,85.30
2023-02-14T14:09:42.922Z,74.67
2023-02-14T14:12:27.732Z,84.70
2023-02-14T14:15:06.809Z,82.35
2023-02-14T14:17:38.109Z,78.05
2023-02-14T14:20:27.601Z,77.50
2023-02-14T14:23:00.016Z,76.18
2023-02-14T14:25:41.544Z,75.75
2023-02-14T14:28:28.847Z,74.57
2023-02-14T14:30:55.930Z,81.78
2023-02-14T14:33:40.802Z,76.25
2023-02-14T14:36:11.181Z,80.05
2023-02-14T14:38:50.642Z,82.30
2023-02-14T14:41:17.854Z,81.20
2023-02-14T14:43:44.548Z,83.05
2023-02-14T14:46:13.909Z,76.55
2023-02-14T14:48:49.144Z,80.78
2023-02-14T14:51:24.286Z,76.25
2023-02-14T14:53:55.246Z,82.53
2023-02-14T14:56:25.809Z,84.35
2023-02-14T14:58:53.533Z,81.30
2023-02-14T15:01:39.916Z,86.07
2023-02-14T15:04:25.267Z,85.57
2023-02-14T15:06:52.398Z,82.65
2023-02-14T15:09:32.423Z,85.32
2023-02-14T15:12:20.435Z,85.45
2023-02-14T15:14:54.367Z,82.53
2023-02-14T15:17:25.612Z,86.07
2023-02-14T15:19:56.556Z,80.68
2023-02-14T15:22:44.299Z,86.10
2023-02-14T15:25:17.037Z,78.07
2023-02-14T15:27:43.818Z,83.63
2023-02-14T15:30:19.622Z,76.30
2023-02-14T15:32:50.108Z,76.60
2023-02-14T15:35:22.754Z,75.35
2023-02-14T15:37:51.118Z,77.60
2023-02-14T15:40:22.675Z,75.88
2023-02-14T15:42:56.083Z,75.72
2023-02-14T15:45:30.702Z,74.88
2023-02-14T15:47:59.481Z,83.72
2023-02-14T15:50:31.297Z,75.30
2023-02-14T15:53:23.809Z,81.13
2023-02-14T15:55:51.284Z,77.47
2023-02-14T15:58:25.356Z,85.05
2023-02-14T16:00:53.408Z,87.55
2023-02-14T16:03:25.697Z,84.30
2023-02-14T16:05:54.712Z,94.07
2023-02-14T16:08:34.782Z,95.90
2023-02-14T16:11:14.506Z,100.70
2023-02-14T16:16:14.359Z,83.95
2023-02-14T16:18:43.328Z,106.87
2023-02-14T16:21:23.695Z,93.68
2023-02-14T16:24:12.154Z,91.85
2023-02-14T16:26:41.752Z,87.65
2023-02-14T16:29:14.726Z,89.45
2023-02-14T16:32:14.547Z,96.25
2023-02-14T16:34:40.993Z,82.50
2023-02-14T16:37:23.736Z,85.65
2023-02-14T16:39:52.893Z,78.95
2023-02-14T16:42:20.480Z,75.07
2023-02-14T16:44:48.622Z,70.55
2023-02-14T16:47:17.225Z,88.78
2023-02-14T16:49:43.968Z,69.75
2023-02-14T16:52:20.274Z,65.75
2023-02-14T16:54:47.889Z,67.15
2023-02-14T16:57:30.702Z,65.07
2023-02-14T16:59:57.495Z,65.38
2023-02-14T17:02:28.203Z,61.25
2023-02-14T17:04:55.006Z,64.80
2023-02-14T17:07:21.951Z,61.05
2023-02-14T17:09:53.318Z,60.53
2023-02-14T17:12:24.134Z,62.22
2023-02-14T17:14:54.660Z,67.47
2023-02-14T17:17:21.315Z,61.28
2023-02-14T17:19:48.055Z,61.60
2023-02-14T17:22:14.999Z,56.45
2023-02-14T17:24:41.703Z,59.17
2023-02-14T17:27:08.564Z,51.22
2023-02-14T17:29:35.202Z,55.17
2023-02-14T17:32:02.084Z,60.60
2023-02-14T17:34:34.693Z,53.85
2023-02-14T17:37:02.831Z,57.20
2023-02-14T17:39:29.509Z,60.05
2023-02-14T17:41:56.800Z,56.50
2023-02-14T17:44:23.661Z,61.40
2023-02-14T17:46:50.323Z,56.10
2023-02-14T17:49:16.984Z,50.03
2023-02-14T17:51:43.574Z,56.38
2023-02-14T17:54:10.199Z,60.25
2023-02-14T17:56:36.852Z,61.50
2023-02-14T17:59:03.771Z,56.05
2023-02-14T18:01:34.572Z,55.75
2023-02-14T18:04:02.459Z,51.63
2023-02-14T18:06:29.115Z,48.80
2023-02-14T18:08:58.748Z,55.60
2023-02-14T18:11:27.765Z,59.90
2023-02-14T18:13:55.917Z,55.35
2023-02-14T18:16:24.826Z,69.05
2023-02-14T18:18:52.224Z,58.60
2023-02-14T18:21:21.792Z,53.05
2023-02-14T18:23:48.683Z,62.60
2023-02-14T18:26:18.146Z,61.58
2023-02-14T18:28:45.234Z,60.25
2023-02-14T18:31:17.999Z,66.28
2023-02-14T18:33:45.950Z,60.33
2023-02-14T18:36:16.831Z,60.88
2023-02-14T18:38:45.196Z,65.13
2023-02-14T18:41:15.027Z,61.33
2023-02-14T18:43:42.649Z,68.82
2023-02-14T18:46:12.196Z,68.85
2023-02-14T18:48:39.268Z,71.30
2023-02-14T18:51:06.407Z,65.78
2023-02-14T18:53:33.141Z,83.80
2023-02-14T18:56:02.676Z,67.47
2023-02-14T18:58:29.395Z,73.75
2023-02-14T19:00:56.499Z,69.13
2023-02-14T19:03:23.102Z,68.65
2023-02-14T19:05:49.807Z,75.50
2023-02-14T19:08:16.392Z,68.78
2023-02-14T19:10:43.002Z,73.20
2023-02-14T19:13:09.577Z,75.00
2023-02-14T19:15:36.152Z,77.18
2023-02-14T19:18:02.821Z,84.93
2023-02-14T19:20:29.443Z,77.47
2023-02-14T19:22:56.016Z,76.07
2023-02-14T19:25:22.726Z,80.47
2023-02-14T19:27:49.443Z,78.70
2023-02-14T19:30:16.309Z,79.72
2023-02-14T19:32:42.950Z,76.60
2023-02-14T19:35:09.600Z,73.97
2023-02-14T19:37:36.266Z,74.68
2023-02-14T19:40:02.945Z,73.10
2023-02-14T19:42:29.547Z,73.68
2023-02-14T19:44:56.168Z,78.30
2023-02-14T19:47:33.857Z,70.65
2023-02-14T19:50:10.161Z,72.28
2023-02-14T19:52:36.840Z,71.75
2023-02-14T19:55:03.910Z,79.72
2023-02-14T19:57:30.494Z,80.05
2023-02-14T19:59:57.276Z,79.57
2023-02-14T20:02:24.614Z,96.07
2023-02-14T20:04:52.954Z,91.00
2023-02-14T20:07:19.523Z,86.45
2023-02-14T20:09:46.217Z,90.30
2023-02-14T20:12:13.556Z,93.38
2023-02-14T20:14:50.818Z,83.88
2023-02-14T20:17:18.112Z,85.43
2023-02-14T20:19:44.836Z,92.45
2023-02-14T20:22:11.432Z,81.75
2023-02-14T20:24:38.150Z,80.75
2023-02-14T20:27:04.916Z,72.05
2023-02-14T20:29:31.925Z,69.00
2023-02-14T20:31:59.927Z,75.00
2023-02-14T20:34:28.186Z,73.70
2023-02-14T20:36:55.817Z,87.45
2023-02-14T20:39:27.342Z,71.75
2023-02-14T20:41:54.139Z,90.75
2023-02-14T20:44:21.400Z,83.22
2023-02-14T20:46:50.232Z,83.03
2023-02-14T20:49:17.384Z,81.50
2023-02-14T20:51:46.014Z,88.43
2023-02-14T20:54:13.172Z,86.93
2023-02-14T20:56:40.219Z,86.38
2023-02-14T20:59:09.276Z,90.47
2023-02-14T21:01:36.279Z,95.55
2023-02-14T21:04:03.450Z,92.57
2023-02-14T21:06:32.694Z,91.95
2023-02-14T21:09:00.297Z,93.28
2023-02-14T21:11:27.997Z,131.43
2023-02-14T21:13:59.242Z,88.15
2023-02-14T21:16:27.387Z,168.77
2023-02-14T21:18:58.870Z,100.32
2023-02-14T21:21:34.598Z,180.07
2023-02-14T21:24:04.418Z,225.57
2023-02-14T21:26:31.206Z,118.95
2023-02-14T21:28:58.313Z,111.45
2023-02-14T21:31:25.672Z,102.97
2023-02-14T21:33:54.754Z,107.38
2023-02-14T21:36:23.231Z,219.02
2023-02-14T21:38:50.725Z,198.63
2023-02-14T21:41:22.154Z,263.40
2023-02-14T21:43:52.422Z,447.98
2023-02-14T21:46:27.100Z,426.23
2023-02-14T21:49:13.693Z,359.45
2023-02-14T21:51:41.068Z,184.23
2023-02-14T21:54:08.532Z,407.02
2023-02-14T21:56:36.706Z,417.15
2023-02-14T21:59:03.411Z,355.58
2023-02-14T22:01:35.319Z,311.30
2023-02-14T22:04:02.853Z,113.68
2023-02-14T22:06:29.471Z,150.35
2023-02-14T22:09:00.637Z,117.25
2023-02-14T22:11:28.715Z,96.63
2023-02-14T22:13:56.395Z,92.57
2023-02-14T22:16:24.840Z,112.38
2023-02-14T22:18:52.087Z,87.28
2023-02-14T22:21:22.332Z,94.88
2023-02-14T22:23:49.332Z,137.55
2023-02-14T22:26:25.575Z,340.45
2023-02-14T22:28:56.689Z,397.42
2023-02-14T22:31:25.359Z,449.92
2023-02-14T22:33:52.392Z,396.13
2023-02-14T22:36:19.148Z,500.42
2023-02-14T22:38:45.820Z,421.42
2023-02-14T22:41:18.527Z,395.02
2023-02-14T22:43:45.739Z,124.43
2023-02-14T22:46:14.955Z,189.48
2023-02-14T22:48:41.874Z,154.25
2023-02-14T22:51:25.156Z,150.98
2023-02-14T22:53:54.333Z,152.15
2023-02-14T22:56:22.895Z,375.60
2023-02-14T22:58:56.487Z,441.27
2023-02-14T23:01:24.392Z,338.65
2023-02-14T23:03:55.569Z,311.50
2023-02-14T23:06:23.550Z,237.82
2023-02-14T23:08:50.655Z,176.75
2023-02-14T23:11:20.818Z,353.42
2023-02-14T23:14:06.522Z,359.70
2023-02-14T23:16:51.904Z,89.57
2023-02-14T23:19:39.487Z,94.22
2023-02-14T23:22:10.490Z,101.38
2023-02-14T23:24:37.897Z,111.35
2023-02-14T23:27:05.598Z,260.83
2023-02-14T23:29:32.608Z,75.20
2023-02-14T23:31:59.522Z,580.90
2023-02-14T23:34:27.760Z,85.38
2023-02-14T23:36:54.510Z,270.80
2023-02-14T23:39:21.374Z,375.42
2023-02-14T23:41:48.076Z,256.17
2023-02-14T23:44:16.649Z,81.28
2023-02-14T23:46:43.814Z,150.32
2023-02-14T23:49:10.879Z,200.30
2023-02-14T23:51:37.670Z,125.35
2023-02-14T23:54:04.653Z,108.53
2023-02-14T23:56:31.295Z,165.32
2023-02-14T23:58:57.896Z,110.30
